Main page
METAR-TAF:

METAR-TAF

Airports :

Begumpet Airport

Hyderabad, India

latitude: 17-27N, longitude: 078-28E, elevation: 530 m

Current weather observation

The report was made 9 hours and 7 minutes ago, at 15:30 UTC
Wind 5 kt from the South/Southeast
Temperature 34°C
Humidity 47%
Pressure 1009 hPa
Visibility: 6000 m
Scattered clouds at a height of 2000 ft
Scattered clouds at a height of 10000 ft
Few clouds at a height of 3000 ft, Towering cumulus.

METAR: VOHY 231530Z 15005KT 6000 SCT020 SCT100 FEW030TCU 34/21 Q1009 NOSIG

Time: 06:07 (00:37 UTC)


TAF: missing

Weather observations and forecasts of more than 4000 airports (METAR and TAF reports).

The available stations are represented by yellow and red dots on the map.

Hover mouse over dot to see the name of the station.

Then click to see weather observations and forecasts.

To change the map : click on the green buttons with a black cross to zoom in, on the green button with a dash to zoom out, or on the green arrows for adjacent maps.


METAR-TAF: